CJC6 weather

Hafford Airport
Hafford, Saskatchewan, Canada

Public forecast

Using degrees Celsius for public forecast. Weather courtesy of forecast.io.

METAR (pilot weather report)

Closest report is North Battleford Airport, 31.7 nm (58.7 km) W. Retrieved 2019/04/24 18:00 UTC (10 minutes ago):

CYQW 241800Z AUTO 29017G27KT 9SM CLR 14/M10 A2986 RMK SLP125 DENSITY ALT 2100FT

TAF (pilot weather forecast)

Closest forecast is North Battleford Airport, 31.7 nm (58.7 km) W. Retrieved 2019/04/24 18:42 UTC (0 seconds ago):

TAF CYQW 241740Z 2418/2506 29018G28KT P6SM FEW080 FM242100 30022G32KT P6SM SCT100 TEMPO 2421/2503 BKN080 FM250300 29018KT P6SM FEW080 RMK FCST BASED ON AUTO OBS. NXT FCST BY 250000Z